createdAt,value
2023-04-20T00:02:22.035Z,100623.53
2023-04-20T00:04:49.121Z,100619.38
2023-04-20T00:07:16.796Z,100619.78
2023-04-20T00:09:43.900Z,100611.75
2023-04-20T00:12:10.988Z,100610.69
2023-04-20T00:14:38.009Z,100617.75
2023-04-20T00:17:05.587Z,100614.09
2023-04-20T00:19:33.407Z,100617.50
2023-04-20T00:22:01.040Z,100616.66
2023-04-20T00:24:28.061Z,100611.75
2023-04-20T00:26:55.401Z,100614.00
2023-04-20T00:29:22.538Z,100606.19
2023-04-20T00:31:49.740Z,100615.03
2023-04-20T00:34:16.780Z,100608.44
2023-04-20T00:36:44.426Z,100620.50
2023-04-20T00:39:11.448Z,100611.50
2023-04-20T00:41:38.616Z,100611.88
2023-04-20T00:44:14.026Z,100607.91
2023-04-20T00:46:41.969Z,100610.41
2023-04-20T00:49:09.623Z,100613.41
2023-04-20T00:51:36.943Z,100621.16
2023-04-20T00:54:04.802Z,100615.88
2023-04-20T00:56:32.062Z,100626.50
2023-04-20T00:58:59.190Z,100615.34
2023-04-20T01:01:26.312Z,100626.56
2023-04-20T01:03:54.376Z,100627.22
2023-04-20T01:06:21.525Z,100620.50
2023-04-20T01:08:52.149Z,100622.13
2023-04-20T01:11:19.306Z,100612.16
2023-04-20T01:13:46.330Z,100619.78
2023-04-20T01:16:13.681Z,100607.91
2023-04-20T01:18:48.434Z,100615.66
2023-04-20T01:21:19.744Z,100626.25
2023-04-20T01:23:47.219Z,100608.88
2023-04-20T01:26:18.308Z,100609.47
2023-04-20T01:28:46.232Z,100605.91
2023-04-20T01:31:13.870Z,100613.78
2023-04-20T01:33:41.559Z,100607.53
2023-04-20T01:36:09.527Z,100620.22
2023-04-20T01:38:37.250Z,100614.59
2023-04-20T01:41:07.145Z,100611.31
2023-04-20T01:43:36.108Z,100617.91
2023-04-20T01:46:03.271Z,100598.06
2023-04-20T01:48:30.312Z,100608.03
2023-04-20T01:50:57.406Z,100606.09
2023-04-20T01:53:25.318Z,100602.81
2023-04-20T01:55:52.392Z,100606.88
2023-04-20T01:58:19.384Z,100611.31
2023-04-20T02:00:46.455Z,100614.94
2023-04-20T02:03:13.739Z,100610.25
2023-04-20T02:05:40.890Z,100610.34
2023-04-20T02:08:07.912Z,100607.63
2023-04-20T02:10:34.946Z,100613.47
2023-04-20T02:13:01.913Z,100615.78
2023-04-20T02:15:29.130Z,100617.84
2023-04-20T02:17:57.431Z,100618.69
2023-04-20T02:20:24.738Z,100614.41
2023-04-20T02:22:51.832Z,100620.16
2023-04-20T02:25:19.020Z,100621.13
2023-04-20T02:27:46.047Z,100615.44
2023-04-20T02:30:13.605Z,100618.13
2023-04-20T02:32:40.882Z,100613.91
2023-04-20T02:35:08.939Z,100625.84
2023-04-20T02:37:36.172Z,100624.63
2023-04-20T02:40:04.908Z,100620.81
2023-04-20T02:42:32.004Z,100615.94
2023-04-20T02:44:59.049Z,100621.34
2023-04-20T02:47:26.056Z,100621.25
2023-04-20T02:49:53.063Z,100623.84
2023-04-20T02:52:20.227Z,100627.31
2023-04-20T02:54:47.357Z,100615.09
2023-04-20T02:57:14.425Z,100616.19
2023-04-20T02:59:41.562Z,100626.63
2023-04-20T03:02:08.666Z,100629.69
2023-04-20T03:04:36.877Z,100626.72
2023-04-20T03:07:04.932Z,100627.84
2023-04-20T03:09:32.020Z,100626.41
2023-04-20T03:11:59.032Z,100621.25
2023-04-20T03:14:26.146Z,100623.34
2023-04-20T03:16:53.341Z,100622.03
2023-04-20T03:19:20.515Z,100626.16
2023-04-20T03:21:47.534Z,100625.66
2023-04-20T03:24:14.673Z,100626.22
2023-04-20T03:26:42.079Z,100622.69
2023-04-20T03:29:09.086Z,100624.03
2023-04-20T03:31:36.182Z,100625.75
2023-04-20T03:34:03.343Z,100621.59
2023-04-20T03:36:30.370Z,100630.53
2023-04-20T03:38:57.347Z,100626.81
2023-04-20T03:41:24.376Z,100627.25
2023-04-20T03:43:51.378Z,100620.81
2023-04-20T03:46:18.668Z,100628.28
2023-04-20T03:48:45.852Z,100623.78
2023-04-20T03:51:12.848Z,100631.94
2023-04-20T03:53:40.726Z,100632.00
2023-04-20T03:56:07.971Z,100636.06
2023-04-20T03:58:35.023Z,100644.94
2023-04-20T04:01:07.089Z,100631.91
2023-04-20T04:03:35.939Z,100636.38
2023-04-20T04:06:03.878Z,100652.00
2023-04-20T04:08:32.272Z,100637.34
2023-04-20T04:11:00.742Z,100651.81
2023-04-20T04:13:27.805Z,100635.03
2023-04-20T04:15:54.842Z,100659.66
2023-04-20T04:18:22.451Z,100657.03
2023-04-20T04:20:49.488Z,100659.69
2023-04-20T04:23:16.640Z,100660.75
2023-04-20T04:25:43.662Z,100658.66
2023-04-20T04:28:10.752Z,100657.66
2023-04-20T04:30:37.823Z,100655.72
2023-04-20T04:33:05.148Z,100666.09
2023-04-20T04:35:33.450Z,100664.81
2023-04-20T04:38:01.072Z,100658.75
2023-04-20T04:40:28.131Z,100672.72
2023-04-20T04:42:55.712Z,100673.63
2023-04-20T04:45:25.400Z,100667.78
2023-04-20T04:47:53.981Z,100677.22
2023-04-20T04:50:22.147Z,100668.06
2023-04-20T04:52:49.289Z,100674.06
2023-04-20T04:55:16.736Z,100681.44
2023-04-20T04:57:43.935Z,100688.53
2023-04-20T05:00:12.647Z,100688.63
2023-04-20T05:02:40.309Z,100696.78
2023-04-20T05:05:10.030Z,100698.16
2023-04-20T05:07:38.605Z,100687.75
2023-04-20T05:10:07.483Z,100696.34
2023-04-20T05:12:34.777Z,100689.78
2023-04-20T05:15:01.894Z,100685.31
2023-04-20T05:17:28.981Z,100690.66
2023-04-20T05:19:55.994Z,100692.25
2023-04-20T05:22:23.129Z,100705.94
2023-04-20T05:24:50.215Z,100705.19
2023-04-20T05:27:17.263Z,100701.16
2023-04-20T05:29:44.249Z,100698.47
2023-04-20T05:32:11.488Z,100702.09
2023-04-20T05:34:38.475Z,100705.88
2023-04-20T05:37:06.261Z,100709.31
2023-04-20T05:39:33.397Z,100712.78
2023-04-20T05:42:00.389Z,100715.84
2023-04-20T05:44:27.384Z,100713.25
2023-04-20T05:46:54.399Z,100720.78
2023-04-20T05:49:21.450Z,100720.78
2023-04-20T05:51:48.498Z,100718.84
2023-04-20T05:54:15.712Z,100725.50
2023-04-20T05:56:42.674Z,100727.34
2023-04-20T05:59:10.143Z,100716.41
2023-04-20T06:01:37.175Z,100725.94
2023-04-20T06:04:04.358Z,100724.16
2023-04-20T06:06:31.590Z,100740.28
2023-04-20T06:08:59.426Z,100738.50
2023-04-20T06:11:26.439Z,100741.00
2023-04-20T06:13:53.438Z,100735.44
2023-04-20T06:16:20.669Z,100748.94
2023-04-20T06:18:47.690Z,100731.88
2023-04-20T06:21:16.079Z,100729.97
2023-04-20T06:23:44.499Z,100723.34
2023-04-20T06:26:11.798Z,100722.31
2023-04-20T06:28:38.956Z,100717.00
2023-04-20T06:31:06.536Z,100717.25
2023-04-20T06:33:33.625Z,100711.81
2023-04-20T06:36:00.632Z,100713.84
2023-04-20T06:38:27.650Z,100713.69
2023-04-20T06:40:54.700Z,100710.78
2023-04-20T06:43:21.681Z,100706.69
2023-04-20T06:45:48.675Z,100707.47
2023-04-20T06:48:30.762Z,100716.69
2023-04-20T06:50:58.928Z,100704.00
2023-04-20T06:53:26.280Z,100708.47
2023-04-20T06:55:56.558Z,100716.13
2023-04-20T06:58:23.547Z,100708.75
2023-04-20T07:00:50.582Z,100726.66
2023-04-20T07:03:19.172Z,100718.34
2023-04-20T07:05:46.798Z,100709.72
2023-04-20T07:08:15.982Z,100722.44
2023-04-20T07:10:43.302Z,100721.97
2023-04-20T07:13:10.299Z,100724.34
2023-04-20T07:15:37.455Z,100711.94
2023-04-20T07:18:04.508Z,100714.22
2023-04-20T07:20:31.897Z,100724.31
2023-04-20T07:22:58.956Z,100732.34
2023-04-20T07:25:26.003Z,100727.53
2023-04-20T07:27:53.061Z,100725.25
2023-04-20T07:30:20.162Z,100724.31
2023-04-20T07:32:47.183Z,100719.47
2023-04-20T07:35:14.251Z,100720.91
2023-04-20T07:37:41.473Z,100727.06
2023-04-20T07:40:09.833Z,100718.13
2023-04-20T07:42:37.480Z,100727.94
2023-04-20T07:45:06.449Z,100728.75
2023-04-20T07:47:37.232Z,100718.44
2023-04-20T07:50:06.515Z,100720.28
2023-04-20T07:52:33.864Z,100717.44
2023-04-20T07:55:00.918Z,100708.69
2023-04-20T07:57:29.090Z,100721.53
2023-04-20T07:59:56.152Z,100716.03
2023-04-20T08:02:23.313Z,100731.38
2023-04-20T08:04:50.913Z,100731.25
2023-04-20T08:07:18.110Z,100721.25
2023-04-20T08:09:45.169Z,100718.22
2023-04-20T08:12:12.284Z,100718.03
2023-04-20T08:14:41.314Z,100706.19
2023-04-20T08:17:08.605Z,100722.09
2023-04-20T08:19:36.341Z,100736.66
2023-04-20T08:22:04.571Z,100730.22
2023-04-20T08:24:32.013Z,100721.78
2023-04-20T08:26:59.425Z,100733.69
2023-04-20T08:29:26.573Z,100740.19
2023-04-20T08:31:53.748Z,100745.81
2023-04-20T08:34:20.806Z,100729.19
2023-04-20T08:36:48.065Z,100724.72
2023-04-20T08:39:21.799Z,100734.06
2023-04-20T08:41:53.963Z,100736.06
2023-04-20T08:44:21.570Z,100725.06
2023-04-20T08:46:50.095Z,100721.22
2023-04-20T08:49:19.324Z,100731.81
2023-04-20T08:51:48.023Z,100737.22
2023-04-20T08:54:15.897Z,100730.97
2023-04-20T08:56:46.290Z,100717.53
2023-04-20T08:59:14.688Z,100727.59
2023-04-20T09:01:43.158Z,100734.13
2023-04-20T09:04:21.660Z,100737.81
2023-04-20T09:06:51.369Z,100739.69
2023-04-20T09:09:20.812Z,100725.44
2023-04-20T09:11:48.740Z,100746.91
2023-04-20T09:14:18.356Z,100737.88
2023-04-20T09:16:53.448Z,100732.63
2023-04-20T09:19:30.852Z,100733.63
2023-04-20T09:22:03.916Z,100741.53
2023-04-20T09:24:33.687Z,100722.34
2023-04-20T09:27:02.799Z,100734.06
2023-04-20T09:29:30.414Z,100717.03
2023-04-20T09:31:57.639Z,100733.03
2023-04-20T09:34:24.878Z,100719.75
2023-04-20T09:36:55.549Z,100727.47
2023-04-20T09:39:24.523Z,100727.16
2023-04-20T09:41:52.714Z,100734.47
2023-04-20T09:44:20.279Z,100728.78
2023-04-20T09:46:47.432Z,100731.59
2023-04-20T09:49:15.227Z,100726.16
2023-04-20T09:51:45.435Z,100756.78
2023-04-20T09:54:15.003Z,100738.09
2023-04-20T09:56:42.197Z,100724.56
2023-04-20T09:59:09.327Z,100735.34
2023-04-20T10:01:38.210Z,100723.69
2023-04-20T10:04:14.754Z,100711.22
2023-04-20T10:06:55.022Z,100710.09
2023-04-20T10:09:28.613Z,100714.16
2023-04-20T10:12:09.956Z,100734.28
2023-04-20T10:14:37.004Z,100709.28
2023-04-20T10:17:09.353Z,100711.09
2023-04-20T10:19:44.732Z,100716.53
2023-04-20T10:22:25.140Z,100721.06
2023-04-20T10:24:52.196Z,100700.31
2023-04-20T10:27:23.010Z,100692.94
2023-04-20T10:29:50.196Z,100698.97
2023-04-20T10:32:28.795Z,100694.22
2023-04-20T10:35:08.754Z,100699.94
2023-04-20T10:37:46.653Z,100708.44
2023-04-20T10:40:13.879Z,100713.97
2023-04-20T10:42:46.968Z,100703.22
2023-04-20T10:45:14.035Z,100700.66
2023-04-20T10:47:41.192Z,100699.78
2023-04-20T10:50:09.364Z,100702.44
2023-04-20T10:52:38.697Z,100695.25
2023-04-20T10:55:08.451Z,100695.19
2023-04-20T10:57:36.672Z,100689.81
2023-04-20T11:00:26.222Z,100693.41
2023-04-20T11:02:56.630Z,100681.81
2023-04-20T11:05:27.370Z,100689.00
2023-04-20T11:07:59.026Z,100691.69
2023-04-20T11:10:42.658Z,100681.00
2023-04-20T11:13:30.899Z,100685.38
2023-04-20T11:15:58.074Z,100697.00
2023-04-20T11:18:25.131Z,100676.38
2023-04-20T11:20:54.241Z,100677.09
2023-04-20T11:23:23.422Z,100685.41
2023-04-20T11:25:56.454Z,100707.81
2023-04-20T11:28:23.913Z,100697.06
2023-04-20T11:30:51.292Z,100685.41
2023-04-20T11:33:29.965Z,100670.13
2023-04-20T11:36:01.884Z,100683.56
2023-04-20T11:38:34.448Z,100693.41
2023-04-20T11:41:04.773Z,100676.38
2023-04-20T11:43:32.580Z,100671.00
2023-04-20T11:46:02.981Z,100680.88
2023-04-20T11:48:33.444Z,100678.31
2023-04-20T11:51:00.487Z,100660.31
2023-04-20T11:53:27.462Z,100678.19
2023-04-20T11:55:54.465Z,100671.91
2023-04-20T11:58:21.445Z,100671.06
2023-04-20T12:00:48.848Z,100667.44
2023-04-20T12:03:15.981Z,100645.91
2023-04-20T12:05:43.342Z,100663.91
2023-04-20T12:08:10.515Z,100660.38
2023-04-20T12:10:37.565Z,100673.88
2023-04-20T12:13:04.671Z,100674.72
2023-04-20T12:15:32.166Z,100669.41
2023-04-20T12:17:59.264Z,100665.78
2023-04-20T12:20:26.359Z,100680.06
2023-04-20T12:22:53.444Z,100663.13
2023-04-20T12:25:20.624Z,100655.06
2023-04-20T12:27:49.424Z,100662.22
2023-04-20T12:30:16.999Z,100647.94
2023-04-20T12:32:43.977Z,100651.56
2023-04-20T12:35:10.976Z,100645.28
2023-04-20T12:37:38.084Z,100645.19
2023-04-20T12:40:07.160Z,100638.00
2023-04-20T12:42:34.203Z,100629.91
2023-04-20T12:45:01.503Z,100625.34
2023-04-20T12:47:28.528Z,100624.38
2023-04-20T12:49:56.289Z,100633.41
2023-04-20T12:52:23.378Z,100629.94
2023-04-20T12:54:50.535Z,100637.09
2023-04-20T12:57:17.530Z,100625.56
2023-04-20T12:59:44.549Z,100637.16
2023-04-20T13:02:12.152Z,100629.16
2023-04-20T13:04:39.308Z,100629.16
2023-04-20T13:07:07.136Z,100623.78
2023-04-20T13:09:34.263Z,100618.44
2023-04-20T13:12:01.368Z,100613.97
2023-04-20T13:14:28.371Z,100627.38
2023-04-20T13:16:55.785Z,100618.47
2023-04-20T13:19:22.993Z,100619.41
2023-04-20T13:21:49.970Z,100620.22
2023-04-20T13:24:17.227Z,100625.63
2023-04-20T13:26:44.421Z,100629.22
2023-04-20T13:29:11.643Z,100629.22
2023-04-20T13:31:38.892Z,100628.31
2023-04-20T13:34:06.146Z,100613.09
2023-04-20T13:36:33.278Z,100621.13
2023-04-20T13:39:01.211Z,100623.84
2023-04-20T13:41:28.173Z,100625.63
2023-04-20T13:43:56.499Z,100618.50
2023-04-20T13:46:23.642Z,100615.78
2023-04-20T13:48:50.832Z,100618.44
2023-04-20T13:51:17.824Z,100620.22
2023-04-20T13:53:44.966Z,100610.44
2023-04-20T13:56:11.940Z,100611.28
2023-04-20T13:58:38.950Z,100609.44
2023-04-20T14:01:11.008Z,100604.88
2023-04-20T14:03:38.311Z,100601.31
2023-04-20T14:06:05.997Z,100608.44
2023-04-20T14:08:32.954Z,100610.25
2023-04-20T14:11:00.013Z,100605.88
2023-04-20T14:13:27.039Z,100596.94
2023-04-20T14:15:54.470Z,100604.06
2023-04-20T14:18:21.641Z,100614.84
2023-04-20T14:20:52.298Z,100607.75
2023-04-20T14:23:19.781Z,100603.28
2023-04-20T14:25:46.856Z,100612.28
2023-04-20T14:28:17.782Z,100607.75
2023-04-20T14:30:45.987Z,100606.84
2023-04-20T14:33:13.308Z,100601.50
2023-04-20T14:35:40.651Z,100600.59
2023-04-20T14:38:07.606Z,100600.53
2023-04-20T14:40:34.679Z,100597.81
2023-04-20T14:43:01.769Z,100599.66
2023-04-20T14:45:29.107Z,100604.16
2023-04-20T14:47:59.248Z,100614.94
2023-04-20T14:50:27.648Z,100620.25
2023-04-20T14:52:55.733Z,100605.06
2023-04-20T14:55:25.678Z,100597.94
2023-04-20T14:57:57.647Z,100600.63
2023-04-20T15:00:27.813Z,100604.19
2023-04-20T15:02:59.655Z,100605.09
2023-04-20T15:05:28.579Z,100600.63
2023-04-20T15:07:57.717Z,100597.94
2023-04-20T15:10:25.096Z,100592.47
2023-04-20T15:12:52.199Z,100584.41
2023-04-20T15:15:19.348Z,100592.47
2023-04-20T15:17:47.015Z,100600.59
2023-04-20T15:20:17.121Z,100588.13
2023-04-20T15:22:44.199Z,100592.59
2023-04-20T15:25:11.632Z,100601.53
2023-04-20T15:27:38.976Z,100592.59
2023-04-20T15:30:07.573Z,100596.16
2023-04-20T15:32:34.804Z,100595.25
2023-04-20T15:35:02.168Z,100609.56
2023-04-20T15:37:29.264Z,100595.25
2023-04-20T15:39:56.284Z,100601.50
2023-04-20T15:42:23.528Z,100593.50
2023-04-20T15:44:50.589Z,100597.06
2023-04-20T15:47:17.612Z,100593.47
2023-04-20T15:49:44.669Z,100594.38
2023-04-20T15:52:11.712Z,100594.38
2023-04-20T15:54:39.002Z,100589.94
2023-04-20T15:57:06.110Z,100581.88
2023-04-20T15:59:33.289Z,100591.69
2023-04-20T16:02:00.391Z,100592.59
2023-04-20T16:04:27.566Z,100582.75
2023-04-20T16:06:55.205Z,100585.41
2023-04-20T16:09:23.750Z,100589.03
2023-04-20T16:11:51.140Z,100593.47
2023-04-20T16:14:18.454Z,100586.34
2023-04-20T16:16:45.793Z,100594.34
2023-04-20T16:19:14.582Z,100581.84
2023-04-20T16:21:41.699Z,100588.09
2023-04-20T16:24:08.736Z,100591.56
2023-04-20T16:26:36.213Z,100594.31
2023-04-20T16:29:03.621Z,100595.19
2023-04-20T16:31:31.134Z,100601.38
2023-04-20T16:33:58.952Z,100604.00
2023-04-20T16:36:27.095Z,100604.00
2023-04-20T16:38:54.093Z,100601.28
2023-04-20T16:41:21.741Z,100610.97
2023-04-20T16:43:48.778Z,100608.25
2023-04-20T16:46:22.194Z,100607.38
2023-04-20T16:48:50.870Z,100610.91
2023-04-20T16:51:17.937Z,100610.91
2023-04-20T16:53:45.458Z,100613.47
2023-04-20T16:56:12.804Z,100617.16
2023-04-20T16:58:39.775Z,100622.38
2023-04-20T17:01:07.821Z,100618.00
2023-04-20T17:03:35.153Z,100621.50
2023-04-20T17:06:07.409Z,100616.09
2023-04-20T17:08:34.760Z,100623.16
2023-04-20T17:11:01.997Z,100629.47
2023-04-20T17:13:28.994Z,100625.72
2023-04-20T17:15:56.436Z,100621.19
2023-04-20T17:18:23.538Z,100627.44
2023-04-20T17:20:50.734Z,100631.91
2023-04-20T17:23:18.284Z,100631.81
2023-04-20T17:25:47.364Z,100631.78
2023-04-20T17:28:14.762Z,100633.59
2023-04-20T17:30:42.099Z,100633.53
2023-04-20T17:33:12.522Z,100637.06
2023-04-20T17:35:39.774Z,100646.78
2023-04-20T17:38:06.852Z,100635.88
2023-04-20T17:40:34.256Z,100646.50
2023-04-20T17:43:02.306Z,100646.50
2023-04-20T17:45:29.386Z,100642.84
2023-04-20T17:47:56.550Z,100643.84
2023-04-20T17:50:23.852Z,100651.06
2023-04-20T17:52:51.711Z,100655.31
2023-04-20T17:55:18.960Z,100646.22
2023-04-20T17:57:45.987Z,100649.16
2023-04-20T18:00:13.986Z,100635.41
2023-04-20T18:02:41.185Z,100650.69
2023-04-20T18:05:08.737Z,100654.13
2023-04-20T18:07:35.844Z,100661.00
2023-04-20T18:10:03.994Z,100657.56
2023-04-20T18:12:30.966Z,100664.44
2023-04-20T18:15:01.399Z,100662.53
2023-04-20T18:17:28.568Z,100658.13
2023-04-20T18:19:55.640Z,100663.56
2023-04-20T18:22:24.244Z,100665.31
2023-04-20T18:24:51.929Z,100657.28
2023-04-20T18:27:19.089Z,100669.66
2023-04-20T18:29:46.455Z,100667.88
2023-04-20T18:32:16.391Z,100661.59
2023-04-20T18:34:44.043Z,100659.81
2023-04-20T18:37:15.002Z,100677.53
2023-04-20T18:39:42.119Z,100672.25
2023-04-20T18:42:09.361Z,100664.94
2023-04-20T18:44:36.462Z,100666.84
2023-04-20T18:47:03.505Z,100665.94
2023-04-20T18:49:30.814Z,100663.78
2023-04-20T18:51:57.827Z,100668.94
2023-04-20T18:54:24.776Z,100666.09
2023-04-20T18:56:51.884Z,100674.44
2023-04-20T18:59:18.949Z,100684.09
2023-04-20T19:01:46.041Z,100676.31
2023-04-20T19:04:13.108Z,100680.34
2023-04-20T19:06:40.317Z,100683.72
2023-04-20T19:09:08.384Z,100682.72
2023-04-20T19:11:35.520Z,100677.00
2023-04-20T19:14:02.787Z,100692.16
2023-04-20T19:16:31.567Z,100689.63
2023-04-20T19:18:59.164Z,100677.16
2023-04-20T19:21:27.073Z,100686.88
2023-04-20T19:23:54.107Z,100689.59
2023-04-20T19:26:21.436Z,100683.31
2023-04-20T19:28:48.500Z,100688.56
2023-04-20T19:31:16.030Z,100693.97
2023-04-20T19:33:43.130Z,100688.06
2023-04-20T19:36:10.270Z,100689.34
2023-04-20T19:38:37.533Z,100692.19
2023-04-20T19:41:06.354Z,100698.03
2023-04-20T19:43:33.588Z,100689.69
2023-04-20T19:46:00.875Z,100693.19
2023-04-20T19:48:27.958Z,100695.03
2023-04-20T19:50:59.274Z,100689.88
2023-04-20T19:53:27.107Z,100689.19
2023-04-20T19:55:54.288Z,100694.13
2023-04-20T19:58:21.456Z,100691.91
2023-04-20T20:00:48.632Z,100705.91
2023-04-20T20:03:16.166Z,100691.03
2023-04-20T20:05:43.882Z,100699.66
2023-04-20T20:08:11.914Z,100703.44
2023-04-20T20:10:39.056Z,100707.63
2023-04-20T20:13:06.390Z,100698.50
2023-04-20T20:15:33.461Z,100700.59
2023-04-20T20:18:00.839Z,100705.53
2023-04-20T20:20:30.480Z,100706.59
2023-04-20T20:22:58.959Z,100700.50
2023-04-20T20:25:26.546Z,100703.03
2023-04-20T20:27:53.722Z,100707.41
2023-04-20T20:30:20.767Z,100699.13
2023-04-20T20:32:48.468Z,100707.81
2023-04-20T20:35:16.514Z,100702.22
2023-04-20T20:37:45.381Z,100699.72
2023-04-20T20:40:16.613Z,100707.66
2023-04-20T20:42:45.225Z,100708.13
2023-04-20T20:45:13.905Z,100715.19
2023-04-20T20:47:44.163Z,100707.38
2023-04-20T20:50:16.281Z,100720.94
2023-04-20T20:52:43.360Z,100712.91
2023-04-20T20:55:10.722Z,100703.34
2023-04-20T20:57:38.034Z,100716.84
2023-04-20T21:00:09.878Z,100709.06
2023-04-20T21:02:37.707Z,100703.38
2023-04-20T21:05:05.921Z,100711.25
2023-04-20T21:07:33.036Z,100712.22
2023-04-20T21:10:00.199Z,100703.06
2023-04-20T21:12:27.186Z,100708.69
2023-04-20T21:14:54.393Z,100701.94
2023-04-20T21:17:21.454Z,100708.69
2023-04-20T21:19:48.474Z,100704.50
2023-04-20T21:22:15.515Z,100711.41
2023-04-20T21:24:42.504Z,100710.47
2023-04-20T21:27:09.978Z,100715.84
2023-04-20T21:29:37.020Z,100713.94
2023-04-20T21:32:04.456Z,100711.94
2023-04-20T21:34:31.723Z,100714.00
2023-04-20T21:37:04.078Z,100706.66
2023-04-20T21:39:32.232Z,100715.44
2023-04-20T21:41:59.851Z,100714.84
2023-04-20T21:44:27.332Z,100715.84
2023-04-20T21:46:54.375Z,100716.50
2023-04-20T21:49:21.989Z,100708.69
2023-04-20T21:51:49.241Z,100713.66
2023-04-20T21:54:16.294Z,100717.50
2023-04-20T21:56:43.354Z,100713.63
2023-04-20T21:59:10.348Z,100718.78
2023-04-20T22:01:37.415Z,100707.91
2023-04-20T22:04:04.794Z,100714.28
2023-04-20T22:06:32.736Z,100710.81
2023-04-20T22:08:59.918Z,100720.72
2023-04-20T22:11:26.902Z,100719.91
2023-04-20T22:13:54.058Z,100725.66
2023-04-20T22:16:21.928Z,100725.50
2023-04-20T22:18:49.222Z,100713.81
2023-04-20T22:21:16.337Z,100722.09
2023-04-20T22:23:43.307Z,100722.06
2023-04-20T22:26:10.617Z,100722.34
2023-04-20T22:28:37.626Z,100723.38
2023-04-20T22:31:04.913Z,100725.03
2023-04-20T22:33:31.916Z,100733.81
2023-04-20T22:35:58.978Z,100729.91
2023-04-20T22:38:26.059Z,100726.31
2023-04-20T22:40:53.759Z,100729.50
2023-04-20T22:43:21.635Z,100725.59
2023-04-20T22:45:48.871Z,100733.34
2023-04-20T22:48:15.977Z,100720.22
2023-04-20T22:50:43.376Z,100726.56
2023-04-20T22:53:10.395Z,100726.41
2023-04-20T22:55:37.362Z,100714.34
2023-04-20T22:58:04.457Z,100734.28
2023-04-20T23:00:31.504Z,100724.25
2023-04-20T23:02:58.611Z,100720.66
2023-04-20T23:05:26.554Z,100720.53
2023-04-20T23:07:54.002Z,100722.16
2023-04-20T23:10:21.292Z,100729.72
2023-04-20T23:12:49.641Z,100716.97
2023-04-20T23:15:16.694Z,100732.41
2023-04-20T23:17:43.782Z,100724.91
2023-04-20T23:20:13.726Z,100730.72
2023-04-20T23:22:41.037Z,100721.16
2023-04-20T23:25:09.928Z,100718.34
2023-04-20T23:27:37.136Z,100725.97
2023-04-20T23:30:04.783Z,100725.00
2023-04-20T23:32:31.910Z,100726.00
2023-04-20T23:34:59.012Z,100712.41
2023-04-20T23:37:26.006Z,100718.03
2023-04-20T23:39:53.006Z,100716.94
2023-04-20T23:42:19.959Z,100711.50
2023-04-20T23:44:46.922Z,100712.13
2023-04-20T23:47:15.531Z,100725.00
2023-04-20T23:49:42.574Z,100721.06
2023-04-20T23:52:09.582Z,100708.13
2023-04-20T23:54:36.554Z,100720.22
2023-04-20T23:57:03.530Z,100724.13
2023-04-20T23:59:31.277Z,100717.09
